createdAt,value
2017-10-23T00:01:03.177Z,71.80
2017-10-23T00:03:31.271Z,72.80
2017-10-23T00:05:59.339Z,75.60
2017-10-23T00:08:27.408Z,73.50
2017-10-23T00:10:55.512Z,69.30
2017-10-23T00:13:23.610Z,69.40
2017-10-23T00:15:51.692Z,69.30
2017-10-23T00:18:20.533Z,70.30
2017-10-23T00:20:48.626Z,67.70
2017-10-23T00:23:16.705Z,70.70
2017-10-23T00:25:44.855Z,70.90
2017-10-23T00:28:12.925Z,70.20
2017-10-23T00:30:41.005Z,70.10
2017-10-23T00:33:09.098Z,74.80
2017-10-23T00:35:37.947Z,72.60
2017-10-23T00:38:06.052Z,67.50
2017-10-23T00:43:03.492Z,68.60
2017-10-23T00:45:31.588Z,68.50
2017-10-23T00:47:59.659Z,68.30
2017-10-23T00:50:27.771Z,71.10
2017-10-23T00:52:56.239Z,72.50
2017-10-23T00:55:25.124Z,75.10
2017-10-23T00:57:54.386Z,74.00
2017-10-23T01:00:22.474Z,74.80
2017-10-23T01:02:52.063Z,76.00
2017-10-23T01:05:20.159Z,72.60
2017-10-23T01:10:17.612Z,72.00
2017-10-23T01:12:45.711Z,73.80
2017-10-23T01:15:13.811Z,72.20
2017-10-23T01:17:42.302Z,73.50
2017-10-23T01:22:39.732Z,74.20
2017-10-23T01:25:09.348Z,75.30
2017-10-23T01:27:38.943Z,76.50
2017-10-23T01:32:36.401Z,77.10
2017-10-23T01:35:04.482Z,76.30
2017-10-23T01:37:32.584Z,76.80
2017-10-23T01:40:01.434Z,77.30
2017-10-23T01:42:29.532Z,75.80
2017-10-23T01:44:57.623Z,76.20
2017-10-23T01:49:55.086Z,79.50
2017-10-23T01:52:23.171Z,77.70
2017-10-23T01:54:52.392Z,77.20
2017-10-23T01:57:20.492Z,76.20
2017-10-23T01:59:48.559Z,76.70
2017-10-23T02:02:16.668Z,77.30
2017-10-23T02:04:45.135Z,76.40
2017-10-23T02:07:13.607Z,76.30
2017-10-23T02:09:41.711Z,76.70
2017-10-23T02:12:09.797Z,73.90
2017-10-23T02:14:39.397Z,78.20
2017-10-23T02:17:08.607Z,74.40
2017-10-23T02:19:36.712Z,75.80
2017-10-23T02:22:05.571Z,76.40
2017-10-23T02:29:33.883Z,78.10
2017-10-23T02:32:03.108Z,76.30
2017-10-23T02:34:31.183Z,76.10
2017-10-23T02:36:59.274Z,76.30
2017-10-23T02:39:27.351Z,76.10
2017-10-23T02:41:56.954Z,76.10
2017-10-23T02:46:54.406Z,74.60
2017-10-23T02:49:22.879Z,74.50
2017-10-23T02:54:20.312Z,73.70
2017-10-23T02:56:48.395Z,73.70
2017-10-23T03:01:46.195Z,73.50
2017-10-23T03:06:43.636Z,73.60
2017-10-23T03:09:11.713Z,74.70
2017-10-23T03:11:39.824Z,74.00
2017-10-23T03:14:07.899Z,75.00
2017-10-23T03:16:35.972Z,74.40
2017-10-23T03:19:04.090Z,73.00
2017-10-23T03:21:32.177Z,74.40
2017-10-23T03:24:01.039Z,74.70
2017-10-23T03:26:29.160Z,72.40
2017-10-23T03:28:58.003Z,73.70
2017-10-23T03:31:26.075Z,73.10
2017-10-23T03:33:54.581Z,72.70
2017-10-23T03:36:22.658Z,74.70
2017-10-23T03:38:50.753Z,72.40
2017-10-23T03:41:19.974Z,74.90
2017-10-23T03:43:48.075Z,74.30
2017-10-23T03:46:16.160Z,72.50
2017-10-23T03:48:44.239Z,72.40
2017-10-23T03:53:41.688Z,73.00
2017-10-23T03:56:09.775Z,72.80
2017-10-23T03:58:37.864Z,73.30
2017-10-23T04:01:05.947Z,74.00
2017-10-23T04:03:34.447Z,73.80
2017-10-23T04:06:03.287Z,74.00
2017-10-23T04:08:31.363Z,75.20
2017-10-23T04:10:59.458Z,73.80
2017-10-23T04:13:27.544Z,74.40
2017-10-23T04:15:56.783Z,73.90
2017-10-23T04:18:24.855Z,74.10
2017-10-23T04:20:52.942Z,75.30
2017-10-23T04:23:21.047Z,75.10
2017-10-23T04:25:49.512Z,74.90
2017-10-23T04:28:17.591Z,75.00
2017-10-23T04:30:45.684Z,75.30
2017-10-23T04:33:14.523Z,75.00
2017-10-23T04:35:42.631Z,74.70
2017-10-23T04:38:10.726Z,75.20
2017-10-23T04:40:39.294Z,75.10
2017-10-23T04:43:07.354Z,75.40
2017-10-23T04:45:35.437Z,75.20
2017-10-23T04:48:03.556Z,74.90
2017-10-23T04:53:00.986Z,75.50
2017-10-23T04:57:58.438Z,76.20
2017-10-23T05:00:26.539Z,75.30
2017-10-23T05:02:55.383Z,75.60
2017-10-23T05:05:24.239Z,76.50
2017-10-23T05:10:21.685Z,75.80
2017-10-23T05:12:49.767Z,75.50
2017-10-23T05:15:19.375Z,80.30
2017-10-23T05:17:48.215Z,80.60
2017-10-23T05:20:16.291Z,76.10
2017-10-23T05:22:44.398Z,71.10
2017-10-23T05:25:12.475Z,73.20
2017-10-23T05:27:40.551Z,75.30
2017-10-23T05:30:09.040Z,77.60
2017-10-23T05:32:37.904Z,76.60
2017-10-23T05:35:08.943Z,75.00
2017-10-23T05:37:37.812Z,70.40
2017-10-23T05:40:07.029Z,70.70
2017-10-23T05:42:35.141Z,67.10
2017-10-23T05:45:04.737Z,73.50
2017-10-23T05:47:33.979Z,70.10
2017-10-23T05:50:02.062Z,68.40
2017-10-23T05:52:30.552Z,70.60
2017-10-23T05:54:58.654Z,68.10
2017-10-23T05:57:26.759Z,65.80
2017-10-23T05:59:54.848Z,63.20
2017-10-23T06:02:22.955Z,68.70
2017-10-23T06:04:51.050Z,65.60
2017-10-23T06:07:19.927Z,65.10
2017-10-23T06:09:48.015Z,66.60
2017-10-23T06:12:16.875Z,66.90
2017-10-23T06:14:44.980Z,64.50
2017-10-23T06:17:13.852Z,62.30
2017-10-23T06:19:41.959Z,62.90
2017-10-23T06:22:10.051Z,63.20
2017-10-23T06:24:38.578Z,64.60
2017-10-23T06:29:36.441Z,63.20
2017-10-23T06:32:04.523Z,66.70
2017-10-23T06:34:32.600Z,67.70
2017-10-23T06:37:02.212Z,69.10
2017-10-23T06:44:30.539Z,66.10
2017-10-23T06:46:58.611Z,66.20
2017-10-23T06:49:26.725Z,66.10
2017-10-23T06:51:54.809Z,67.10
2017-10-23T06:54:23.647Z,67.20
2017-10-23T06:56:52.887Z,65.70
2017-10-23T06:59:20.979Z,64.50
2017-10-23T07:04:20.019Z,63.90
2017-10-23T07:06:48.467Z,64.60
2017-10-23T07:09:16.547Z,65.00
2017-10-23T07:11:44.651Z,64.20
2017-10-23T07:14:12.743Z,63.20
2017-10-23T07:16:41.595Z,65.30
2017-10-23T07:19:11.176Z,67.10
2017-10-23T07:21:39.275Z,64.60
2017-10-23T07:24:07.351Z,65.20
2017-10-23T07:26:35.806Z,63.70
2017-10-23T07:29:04.620Z,63.80
2017-10-23T07:31:32.719Z,63.60
2017-10-23T07:34:01.195Z,62.70
2017-10-23T07:36:29.684Z,63.70
2017-10-23T07:38:58.163Z,62.00
2017-10-23T07:41:27.422Z,61.20
2017-10-23T07:43:55.520Z,62.20
2017-10-23T07:46:23.596Z,60.90
2017-10-23T07:48:51.699Z,61.10
2017-10-23T07:51:19.787Z,61.50
2017-10-23T07:53:48.653Z,60.10
2017-10-23T07:56:17.500Z,61.30
2017-10-23T07:58:46.743Z,60.30
2017-10-23T08:01:15.596Z,61.70
2017-10-23T08:03:43.691Z,58.50
2017-10-23T08:06:12.535Z,58.30
2017-10-23T08:08:41.399Z,58.80
2017-10-23T08:11:09.479Z,58.90
2017-10-23T08:13:38.340Z,58.30
2017-10-23T08:16:07.187Z,59.40
2017-10-23T08:18:35.295Z,57.90
2017-10-23T08:21:04.891Z,58.00
2017-10-23T08:23:33.767Z,57.80
2017-10-23T08:26:02.632Z,58.40
2017-10-23T08:28:30.731Z,58.30
2017-10-23T08:30:58.840Z,58.90
2017-10-23T08:35:56.312Z,57.50
2017-10-23T08:40:54.144Z,60.00
2017-10-23T08:43:23.388Z,60.10
2017-10-23T08:48:20.839Z,58.00
2017-10-23T08:50:48.923Z,59.60
2017-10-23T08:55:46.371Z,56.30
2017-10-23T08:58:14.467Z,57.10
2017-10-23T09:00:43.695Z,56.50
2017-10-23T09:03:12.568Z,57.70
2017-10-23T09:05:40.655Z,55.10
2017-10-23T09:08:09.564Z,57.10
2017-10-23T09:10:38.068Z,54.90
2017-10-23T09:13:06.151Z,55.10
2017-10-23T09:15:35.019Z,53.50
2017-10-23T09:18:03.112Z,52.20
2017-10-23T09:23:00.952Z,51.60
2017-10-23T09:25:29.847Z,52.00
2017-10-23T09:27:58.691Z,53.40
2017-10-23T09:30:26.783Z,53.00
2017-10-23T09:32:56.403Z,51.30
2017-10-23T09:35:25.991Z,51.50
2017-10-23T09:37:54.092Z,52.10
2017-10-23T09:40:23.706Z,51.30
2017-10-23T09:42:52.556Z,52.00
2017-10-23T09:45:21.055Z,50.10
2017-10-23T09:47:49.145Z,49.10
2017-10-23T09:50:18.018Z,49.90
2017-10-23T09:52:46.513Z,48.10
2017-10-23T09:55:15.395Z,47.60
2017-10-23T09:57:44.251Z,47.50
2017-10-23T10:00:12.336Z,45.50
2017-10-23T10:02:40.447Z,43.90
2017-10-23T10:05:08.933Z,42.80
2017-10-23T10:07:37.011Z,41.70
2017-10-23T10:10:05.120Z,40.90
2017-10-23T10:12:33.225Z,41.20
2017-10-23T10:15:01.328Z,41.70
2017-10-23T10:17:29.411Z,40.10
2017-10-23T10:19:57.536Z,39.50
2017-10-23T10:22:25.619Z,40.50
2017-10-23T10:24:54.856Z,40.60
2017-10-23T10:27:23.351Z,40.60
2017-10-23T10:29:51.434Z,41.70
2017-10-23T10:32:19.539Z,43.20
2017-10-23T10:34:47.625Z,42.80
2017-10-23T10:39:45.060Z,44.40
2017-10-23T10:42:13.907Z,44.10
2017-10-23T10:44:42.040Z,44.00
2017-10-23T10:47:10.871Z,45.70
2017-10-23T10:49:38.966Z,43.00
2017-10-23T10:52:07.064Z,43.70
2017-10-23T10:54:35.170Z,43.00
2017-10-23T10:57:04.024Z,43.50
2017-10-23T10:59:32.127Z,43.70
2017-10-23T11:02:01.000Z,43.10
2017-10-23T11:04:29.092Z,43.20
2017-10-23T11:06:58.336Z,43.70
2017-10-23T11:09:26.439Z,38.90
2017-10-23T11:11:55.679Z,38.90
2017-10-23T11:14:25.286Z,36.50
2017-10-23T11:16:53.399Z,38.10
2017-10-23T11:19:22.631Z,37.20
2017-10-23T11:21:51.116Z,36.60
2017-10-23T11:26:48.608Z,35.00
2017-10-23T11:29:17.454Z,32.20
2017-10-23T11:31:45.558Z,34.30
2017-10-23T11:34:14.404Z,35.90
2017-10-23T11:36:43.288Z,37.50
2017-10-23T11:41:41.507Z,40.70
2017-10-23T11:44:09.604Z,42.00
2017-10-23T11:46:38.075Z,42.70
2017-10-23T11:49:06.184Z,43.50
2017-10-23T11:51:34.290Z,43.60
2017-10-23T11:54:03.513Z,43.40
2017-10-23T11:56:32.012Z,43.90
2017-10-23T11:59:01.279Z,43.20
2017-10-23T12:03:58.737Z,43.50
2017-10-23T12:06:26.850Z,43.00
2017-10-23T12:08:54.954Z,44.10
2017-10-23T12:11:23.035Z,46.00
2017-10-23T12:13:51.918Z,47.30
2017-10-23T12:16:20.009Z,45.70
2017-10-23T12:18:48.120Z,47.80
2017-10-23T12:23:45.571Z,44.70
2017-10-23T12:26:13.679Z,46.40
2017-10-23T12:28:43.280Z,47.40
2017-10-23T12:31:11.775Z,48.30
2017-10-23T12:33:40.633Z,45.80
2017-10-23T12:36:08.726Z,46.00
2017-10-23T12:38:36.819Z,46.00
2017-10-23T12:41:06.044Z,45.60
2017-10-23T12:46:04.263Z,37.40
2017-10-23T12:48:32.373Z,34.40
2017-10-23T12:51:01.223Z,35.10
2017-10-23T12:53:30.119Z,37.80
2017-10-23T12:55:58.977Z,39.00
2017-10-23T12:58:27.065Z,39.20
2017-10-23T13:00:55.167Z,39.40
2017-10-23T13:03:23.259Z,39.60
2017-10-23T13:05:53.124Z,39.70
2017-10-23T13:08:21.559Z,40.60
2017-10-23T13:10:51.171Z,40.70
2017-10-23T13:13:20.396Z,40.70
2017-10-23T13:15:49.644Z,40.40
2017-10-23T13:18:17.733Z,38.70
2017-10-23T13:20:46.604Z,40.20
2017-10-23T13:25:44.466Z,42.10
2017-10-23T13:28:12.548Z,41.40
2017-10-23T13:30:40.659Z,40.10
2017-10-23T13:33:09.898Z,41.50
2017-10-23T13:35:37.997Z,41.50
2017-10-23T13:38:06.087Z,40.80
2017-10-23T13:40:34.183Z,40.50
2017-10-23T13:43:02.277Z,40.40
2017-10-23T13:45:30.399Z,38.50
2017-10-23T13:47:58.886Z,39.60
2017-10-23T13:50:26.974Z,40.30
2017-10-23T13:52:55.851Z,41.30
2017-10-23T13:55:23.959Z,41.00
2017-10-23T13:57:52.447Z,42.50
2017-10-23T14:00:20.536Z,43.20
2017-10-23T14:02:49.405Z,42.90
2017-10-23T14:05:18.645Z,43.30
2017-10-23T14:07:46.734Z,42.30
2017-10-23T14:10:14.844Z,43.20
2017-10-23T14:12:43.708Z,43.90
2017-10-23T14:15:12.574Z,42.50
2017-10-23T14:17:40.672Z,40.60
2017-10-23T14:20:09.552Z,41.90
2017-10-23T14:22:39.159Z,42.60
2017-10-23T14:25:07.259Z,41.60
2017-10-23T14:27:36.172Z,42.50
2017-10-23T14:30:04.282Z,41.70
2017-10-23T14:32:32.393Z,42.70
2017-10-23T14:35:00.901Z,41.50
2017-10-23T14:37:29.756Z,41.70
2017-10-23T14:39:58.619Z,42.90
2017-10-23T14:42:26.735Z,42.00
2017-10-23T14:44:54.819Z,42.40
2017-10-23T14:47:22.908Z,42.10
2017-10-23T14:49:51.808Z,42.70
2017-10-23T14:52:20.290Z,42.60
2017-10-23T14:54:48.432Z,41.70
2017-10-23T14:57:16.909Z,42.00
2017-10-23T14:59:45.752Z,43.60
2017-10-23T15:02:13.863Z,42.40
2017-10-23T15:04:43.103Z,42.10
2017-10-23T15:07:11.207Z,43.10
2017-10-23T15:09:39.685Z,43.30
2017-10-23T15:12:07.773Z,43.90
2017-10-23T15:14:35.877Z,44.00
2017-10-23T15:19:33.332Z,43.60
2017-10-23T15:22:02.584Z,43.00
2017-10-23T15:24:30.668Z,43.50
2017-10-23T15:26:58.767Z,44.70
2017-10-23T15:31:56.218Z,43.40
2017-10-23T15:34:25.470Z,43.40
2017-10-23T15:36:54.336Z,43.90
2017-10-23T15:39:23.957Z,43.30
2017-10-23T15:41:52.047Z,43.00
2017-10-23T15:44:20.153Z,44.50
2017-10-23T15:49:17.601Z,44.10
2017-10-23T15:51:45.687Z,44.40
2017-10-23T15:54:13.813Z,44.90
2017-10-23T15:59:11.267Z,44.70
2017-10-23T16:01:39.384Z,44.70
2017-10-23T16:06:37.600Z,46.00
2017-10-23T16:09:06.081Z,45.90
2017-10-23T16:11:34.199Z,45.70
2017-10-23T16:14:03.056Z,46.40
2017-10-23T16:16:31.624Z,46.80
2017-10-23T16:18:59.691Z,46.80
2017-10-23T16:21:28.907Z,47.30
2017-10-23T16:23:57.028Z,47.30
2017-10-23T16:28:54.455Z,47.00
2017-10-23T16:31:22.956Z,47.50
2017-10-23T16:33:52.543Z,48.80
2017-10-23T16:36:21.066Z,47.60
2017-10-23T16:38:49.911Z,47.80
2017-10-23T16:41:18.003Z,48.50
2017-10-23T16:43:46.108Z,48.60
2017-10-23T16:46:14.965Z,48.40
2017-10-23T16:48:43.443Z,48.90
2017-10-23T16:51:11.579Z,49.30
2017-10-23T16:53:39.655Z,50.00
2017-10-23T16:56:07.743Z,50.00
2017-10-23T16:58:35.854Z,50.30
2017-10-23T17:01:05.475Z,50.10
2017-10-23T17:03:35.083Z,51.40
2017-10-23T17:06:04.691Z,52.00
2017-10-23T17:08:33.561Z,53.00
2017-10-23T17:13:31.444Z,53.30
2017-10-23T17:15:59.532Z,54.90
2017-10-23T17:20:56.983Z,55.80
2017-10-23T17:23:25.080Z,54.90
2017-10-23T17:25:53.956Z,54.30
2017-10-23T17:28:22.440Z,54.00
2017-10-23T17:30:51.346Z,53.80
2017-10-23T17:33:19.820Z,52.00
2017-10-23T17:38:17.349Z,51.00
2017-10-23T17:40:46.940Z,51.60
2017-10-23T17:43:15.411Z,52.30
2017-10-23T17:45:43.496Z,52.80
2017-10-23T17:48:11.976Z,50.80
2017-10-23T17:50:40.100Z,50.90
2017-10-23T17:53:08.592Z,50.60
2017-10-23T17:55:37.444Z,51.60
2017-10-23T18:00:34.904Z,51.30
2017-10-23T18:03:03.000Z,51.70
2017-10-23T18:05:31.096Z,53.00
2017-10-23T18:07:59.172Z,52.70
2017-10-23T18:10:28.066Z,53.60
2017-10-23T18:12:56.931Z,55.90
2017-10-23T18:15:25.024Z,55.10
2017-10-23T18:17:53.887Z,53.10
2017-10-23T18:20:22.008Z,52.30
2017-10-23T18:22:50.478Z,52.70
2017-10-23T18:25:19.323Z,54.40
2017-10-23T18:27:47.846Z,52.10
2017-10-23T18:32:45.269Z,52.20
2017-10-23T18:35:13.452Z,53.30
2017-10-23T18:37:41.927Z,54.10
2017-10-23T18:40:10.047Z,53.10
2017-10-23T18:42:38.131Z,52.10
2017-10-23T18:45:06.985Z,53.50
2017-10-23T18:47:35.542Z,53.80
2017-10-23T18:50:03.608Z,53.00
2017-10-23T18:52:32.860Z,53.30
2017-10-23T18:55:01.064Z,52.30
2017-10-23T18:57:29.208Z,53.20
2017-10-23T18:59:57.310Z,53.40
2017-10-23T19:02:25.395Z,53.70
2017-10-23T19:04:53.491Z,53.40
2017-10-23T19:07:21.594Z,54.50
2017-10-23T19:09:49.713Z,54.50
2017-10-23T19:12:18.187Z,54.70
2017-10-23T19:14:46.266Z,55.80
2017-10-23T19:17:14.369Z,55.60
2017-10-23T19:19:42.448Z,55.30
2017-10-23T19:22:10.971Z,55.70
2017-10-23T19:24:39.040Z,55.90
2017-10-23T19:27:07.899Z,57.30
2017-10-23T19:29:35.986Z,57.00
2017-10-23T19:32:04.095Z,58.20
2017-10-23T19:34:32.583Z,58.40
2017-10-23T19:37:00.668Z,59.00
2017-10-23T19:39:28.771Z,58.90
2017-10-23T19:41:56.860Z,59.50
2017-10-23T19:44:24.955Z,60.10
2017-10-23T19:46:53.440Z,59.80
2017-10-23T19:49:22.288Z,60.60
2017-10-23T19:51:50.378Z,59.20
2017-10-23T19:54:18.455Z,59.50
2017-10-23T19:56:47.094Z,59.30
2017-10-23T20:01:44.539Z,59.60
2017-10-23T20:04:14.959Z,59.30
2017-10-23T20:06:43.025Z,59.50
2017-10-23T20:09:11.864Z,60.90
2017-10-23T20:11:40.356Z,59.50
2017-10-23T20:14:08.455Z,60.10
2017-10-23T20:16:36.538Z,60.70
2017-10-23T20:19:05.403Z,61.00
2017-10-23T20:21:33.907Z,61.30
2017-10-23T20:29:01.467Z,60.40
2017-10-23T20:31:29.543Z,60.50
2017-10-23T20:33:57.642Z,60.10
2017-10-23T20:38:55.117Z,59.60
2017-10-23T20:41:23.959Z,59.70
2017-10-23T20:43:52.064Z,59.70
2017-10-23T20:46:20.132Z,59.70
2017-10-23T20:48:48.979Z,59.70
2017-10-23T20:51:17.102Z,60.30
2017-10-23T20:53:45.208Z,59.70
2017-10-23T20:58:43.443Z,61.10
2017-10-23T21:01:11.566Z,60.80
2017-10-23T21:03:39.639Z,61.80
2017-10-23T21:06:09.223Z,61.30
2017-10-23T21:08:37.331Z,62.10
2017-10-23T21:11:05.427Z,62.20
2017-10-23T21:13:34.214Z,62.60
2017-10-23T21:16:02.286Z,62.70
2017-10-23T21:18:30.368Z,62.50
2017-10-23T21:20:58.464Z,62.70
2017-10-23T21:23:26.548Z,63.10
2017-10-23T21:25:55.418Z,63.80
2017-10-23T21:28:23.494Z,63.80
2017-10-23T21:30:51.595Z,64.20
2017-10-23T21:33:20.445Z,64.70
2017-10-23T21:35:48.539Z,65.10
2017-10-23T21:38:16.639Z,65.30
2017-10-23T21:40:45.487Z,66.60
2017-10-23T21:43:13.591Z,65.30
2017-10-23T21:45:42.435Z,67.10
2017-10-23T21:50:40.643Z,68.10
2017-10-23T21:53:08.725Z,67.60
2017-10-23T21:55:36.823Z,68.30
2017-10-23T21:58:05.662Z,68.90
2017-10-23T22:00:33.784Z,68.70
2017-10-23T22:03:03.005Z,69.50
2017-10-23T22:08:01.220Z,71.20
2017-10-23T22:10:29.300Z,71.20
2017-10-23T22:12:57.415Z,71.40
2017-10-23T22:15:25.498Z,71.50
2017-10-23T22:17:54.335Z,72.00
2017-10-23T22:20:23.204Z,72.20
2017-10-23T22:22:51.286Z,71.60
2017-10-23T22:25:19.391Z,71.60
2017-10-23T22:27:47.467Z,71.10
2017-10-23T22:30:15.567Z,70.60
2017-10-23T22:32:44.411Z,72.00
2017-10-23T22:35:12.527Z,73.00
2017-10-23T22:37:41.375Z,72.60
2017-10-23T22:40:09.463Z,72.30
2017-10-23T22:42:38.347Z,71.50
2017-10-23T22:45:06.447Z,72.30
2017-10-23T22:47:35.309Z,73.30
2017-10-23T22:50:03.407Z,71.80
2017-10-23T22:52:31.503Z,71.60
2017-10-23T22:55:00.351Z,73.20
2017-10-23T22:57:28.447Z,72.80
2017-10-23T22:59:56.542Z,72.30
2017-10-23T23:02:24.625Z,72.10
2017-10-23T23:04:53.119Z,71.90
2017-10-23T23:07:21.223Z,74.40
2017-10-23T23:12:19.057Z,73.80
2017-10-23T23:14:48.662Z,74.10
2017-10-23T23:17:17.511Z,73.00
2017-10-23T23:19:45.614Z,71.40
2017-10-23T23:22:14.458Z,71.50
2017-10-23T23:24:42.568Z,71.10
2017-10-23T23:27:11.414Z,72.30
2017-10-23T23:29:39.495Z,72.50
2017-10-23T23:32:07.596Z,72.40
2017-10-23T23:34:35.668Z,72.20
2017-10-23T23:37:03.764Z,71.20
2017-10-23T23:39:32.607Z,73.00
2017-10-23T23:42:00.729Z,72.20
2017-10-23T23:44:29.581Z,71.70
2017-10-23T23:46:57.662Z,70.20
2017-10-23T23:49:25.721Z,70.30
2017-10-23T23:51:53.821Z,69.80
2017-10-23T23:54:23.407Z,68.70
2017-10-23T23:56:51.503Z,68.80
